createdAt,value
2022-08-07T00:00:28.677Z,69.0
2022-08-07T00:03:12.907Z,69.0
2022-08-07T00:05:36.362Z,69.0
2022-08-07T00:08:09.964Z,69.0
2022-08-07T00:10:47.796Z,69.0
2022-08-07T00:13:24.146Z,68.0
2022-08-07T00:15:56.228Z,68.0
2022-08-07T00:18:29.746Z,68.0
2022-08-07T00:20:50.978Z,68.0
2022-08-07T00:23:23.721Z,68.0
2022-08-07T00:26:13.470Z,68.0
2022-08-07T00:28:33.880Z,68.0
2022-08-07T00:30:55.770Z,68.0
2022-08-07T00:33:33.053Z,68.0
2022-08-07T00:38:42.092Z,67.0
2022-08-07T00:41:14.541Z,67.0
2022-08-07T00:44:12.524Z,67.0
2022-08-07T00:46:18.114Z,67.0
2022-08-07T00:48:52.648Z,67.0
2022-08-07T00:51:23.582Z,67.0
2022-08-07T00:54:05.121Z,67.0
2022-08-07T00:56:30.090Z,67.0
2022-08-07T00:58:53.937Z,67.0
2022-08-07T01:01:41.389Z,67.0
2022-08-07T01:04:10.352Z,67.0
2022-08-07T01:06:35.640Z,66.0
2022-08-07T01:09:10.733Z,67.0
2022-08-07T01:12:38.645Z,67.0
2022-08-07T01:14:06.130Z,67.0
2022-08-07T01:19:32.121Z,67.0
2022-08-07T01:21:56.735Z,67.0
2022-08-07T01:24:21.315Z,67.0
2022-08-07T01:26:52.669Z,67.0
2022-08-07T01:29:38.095Z,68.0
2022-08-07T01:32:01.141Z,68.0
2022-08-07T01:34:41.291Z,68.0
2022-08-07T01:37:09.672Z,68.0
2022-08-07T01:39:56.620Z,68.0
2022-08-07T01:44:47.899Z,68.0
2022-08-07T01:48:30.991Z,68.0
2022-08-07T01:49:53.534Z,68.0
2022-08-07T01:52:25.584Z,68.0
2022-08-07T01:54:47.855Z,69.0
2022-08-07T01:59:59.556Z,69.0
2022-08-07T02:03:11.576Z,69.0
2022-08-07T02:05:07.614Z,69.0
2022-08-07T02:07:50.320Z,69.0
2022-08-07T02:10:03.565Z,70.0
2022-08-07T02:12:41.075Z,70.0
2022-08-07T02:15:22.571Z,70.0
2022-08-07T02:17:49.676Z,70.0
2022-08-07T02:20:30.077Z,70.0
2022-08-07T02:22:55.011Z,70.0
2022-08-07T02:25:32.319Z,70.0
2022-08-07T02:28:06.966Z,70.0
2022-08-07T02:30:36.061Z,70.0
2022-08-07T02:33:19.221Z,70.0
2022-08-07T02:36:42.170Z,70.0
2022-08-07T02:40:41.486Z,70.0
2022-08-07T02:43:18.289Z,70.0
2022-08-07T02:46:09.820Z,70.0
2022-08-07T02:48:25.796Z,70.0
2022-08-07T02:50:46.482Z,70.0
2022-08-07T02:53:20.866Z,70.0
2022-08-07T02:56:17.694Z,70.0
2022-08-07T02:58:39.624Z,70.0
2022-08-07T03:01:03.255Z,69.0
2022-08-07T03:03:42.432Z,69.0
2022-08-07T03:06:07.999Z,69.0
2022-08-07T03:08:39.676Z,69.0
2022-08-07T03:11:05.821Z,69.0
2022-08-07T03:14:01.725Z,68.0
2022-08-07T03:16:13.859Z,68.0
2022-08-07T03:21:21.551Z,69.0
2022-08-07T03:24:36.535Z,69.0
2022-08-07T03:26:33.767Z,69.0
2022-08-07T03:29:01.728Z,69.0
2022-08-07T03:31:42.173Z,69.0
2022-08-07T03:34:03.888Z,69.0
2022-08-07T03:36:36.103Z,69.0
2022-08-07T03:38:59.174Z,69.0
2022-08-07T03:41:57.614Z,69.0
2022-08-07T03:44:12.659Z,69.0
2022-08-07T03:47:11.707Z,69.0
2022-08-07T03:49:16.619Z,69.0
2022-08-07T03:52:01.058Z,69.0
2022-08-07T03:54:54.745Z,69.0
2022-08-07T03:58:08.676Z,69.0
2022-08-07T04:02:03.381Z,70.0
2022-08-07T04:04:35.075Z,70.0
2022-08-07T04:07:07.547Z,70.0
2022-08-07T04:09:55.227Z,71.0
2022-08-07T04:12:38.466Z,70.0
2022-08-07T04:14:49.031Z,70.0
2022-08-07T04:17:29.196Z,70.0
2022-08-07T04:20:01.281Z,70.0
2022-08-07T04:22:18.754Z,71.0
2022-08-07T04:25:02.014Z,71.0
2022-08-07T04:27:35.375Z,70.0
2022-08-07T04:30:21.787Z,70.0
2022-08-07T04:32:44.732Z,69.0
2022-08-07T04:34:59.346Z,69.0
2022-08-07T04:37:40.642Z,69.0
2022-08-07T04:42:45.796Z,69.0
2022-08-07T04:45:22.540Z,68.0
2022-08-07T04:48:10.772Z,68.0
2022-08-07T04:50:14.827Z,67.0
2022-08-07T04:53:03.011Z,67.0
2022-08-07T04:59:08.060Z,67.0
2022-08-07T05:00:42.502Z,66.0
2022-08-07T05:01:13.404Z,66.0
2022-08-07T05:03:00.807Z,66.0
2022-08-07T05:06:16.565Z,66.0
2022-08-07T05:08:14.284Z,65.0
2022-08-07T05:10:40.833Z,65.0
2022-08-07T05:15:03.397Z,64.0
2022-08-07T05:15:43.398Z,64.0
2022-08-07T05:18:19.352Z,64.0
2022-08-07T05:23:29.171Z,63.0
2022-08-07T05:26:25.658Z,63.0
2022-08-07T05:28:33.607Z,63.0
2022-08-07T05:30:58.985Z,62.0
2022-08-07T05:33:25.877Z,62.0
2022-08-07T05:35:58.018Z,62.0
2022-08-07T05:40:05.346Z,61.0
2022-08-07T05:41:12.206Z,61.0
2022-08-07T05:44:16.892Z,60.0
2022-08-07T05:46:07.090Z,60.0
2022-08-07T05:48:57.313Z,59.0
2022-08-07T05:51:13.635Z,59.0
2022-08-07T05:54:44.024Z,59.0
2022-08-07T05:56:26.919Z,58.0
2022-08-07T05:58:59.365Z,58.0
2022-08-07T06:04:08.672Z,58.0
2022-08-07T06:06:32.437Z,58.0
2022-08-07T06:09:09.120Z,58.0
2022-08-07T06:11:35.938Z,58.0
2022-08-07T06:14:30.641Z,58.0
2022-08-07T06:16:39.655Z,58.0
2022-08-07T06:19:17.739Z,58.0
2022-08-07T06:22:38.449Z,58.0
2022-08-07T06:25:03.374Z,57.0
2022-08-07T06:26:54.651Z,57.0
2022-08-07T06:29:25.595Z,57.0
2022-08-07T06:32:01.480Z,56.0
2022-08-07T06:34:25.143Z,56.0
2022-08-07T06:37:05.804Z,56.0
2022-08-07T06:40:34.344Z,55.0
2022-08-07T06:44:44.023Z,54.0
2022-08-07T06:47:22.260Z,53.0
2022-08-07T06:49:51.316Z,52.0
2022-08-07T06:52:31.126Z,52.0
2022-08-07T06:56:00.587Z,51.0
2022-08-07T06:57:39.465Z,51.0
2022-08-07T07:00:28.491Z,51.0
2022-08-07T07:03:08.574Z,51.0
2022-08-07T07:05:05.444Z,51.0
2022-08-07T07:08:18.363Z,50.0
2022-08-07T07:10:10.349Z,50.0
2022-08-07T07:12:41.670Z,50.0
2022-08-07T07:15:23.499Z,51.0
2022-08-07T07:17:50.429Z,49.0
2022-08-07T07:20:15.985Z,50.0
2022-08-07T07:26:49.554Z,51.0
2022-08-07T07:28:07.674Z,49.0
2022-08-07T07:30:26.276Z,50.0
2022-08-07T07:32:55.193Z,50.0
2022-08-07T07:35:43.896Z,49.0
2022-08-07T07:38:15.025Z,49.0
2022-08-07T07:40:36.529Z,49.0
2022-08-07T07:43:27.395Z,49.0
2022-08-07T07:47:13.629Z,49.0
2022-08-07T07:48:24.206Z,49.0
2022-08-07T07:50:50.334Z,49.0
2022-08-07T07:53:34.884Z,48.0
2022-08-07T07:56:04.792Z,48.0
2022-08-07T07:58:16.715Z,49.0
2022-08-07T08:00:53.592Z,48.0
2022-08-07T08:06:05.979Z,48.0
2022-08-07T08:08:45.743Z,48.0
2022-08-07T08:11:02.675Z,48.0
2022-08-07T08:13:55.730Z,49.0
2022-08-07T08:16:12.536Z,50.0
2022-08-07T08:18:46.306Z,48.0
2022-08-07T08:21:18.666Z,48.0
2022-08-07T08:23:53.124Z,48.0
2022-08-07T08:26:17.380Z,48.0
2022-08-07T08:28:49.337Z,47.0
2022-08-07T08:31:30.447Z,47.0
2022-08-07T08:34:05.611Z,47.0
2022-08-07T08:36:40.090Z,46.0
2022-08-07T08:39:09.269Z,47.0
2022-08-07T08:41:56.845Z,47.0
2022-08-07T08:46:40.644Z,46.0
2022-08-07T08:49:15.758Z,46.0
2022-08-07T08:52:24.464Z,45.0
2022-08-07T08:54:22.009Z,45.0
2022-08-07T08:56:47.159Z,45.0
2022-08-07T08:59:24.056Z,45.0
2022-08-07T09:01:58.375Z,44.0
2022-08-07T09:04:35.929Z,45.0
2022-08-07T09:07:06.998Z,45.0
2022-08-07T09:09:40.503Z,45.0
2022-08-07T09:12:20.415Z,45.0
2022-08-07T09:14:39.705Z,44.0
2022-08-07T09:17:12.192Z,44.0
2022-08-07T09:20:09.404Z,43.0
2022-08-07T09:24:55.888Z,44.0
2022-08-07T09:27:22.085Z,45.0
2022-08-07T09:30:17.280Z,45.0
2022-08-07T09:32:33.135Z,45.0
2022-08-07T09:36:01.708Z,44.0
2022-08-07T09:37:33.600Z,44.0
2022-08-07T09:40:05.126Z,44.0
2022-08-07T09:42:35.118Z,43.0
2022-08-07T09:48:05.113Z,44.0
2022-08-07T09:50:00.165Z,43.0
2022-08-07T09:52:51.736Z,45.0
2022-08-07T09:55:17.225Z,44.0
2022-08-07T09:57:47.133Z,43.0
2022-08-07T10:00:18.899Z,43.0
2022-08-07T10:03:07.981Z,43.0
2022-08-07T10:08:03.799Z,42.0
2022-08-07T10:11:00.518Z,43.0
2022-08-07T10:13:04.816Z,42.0
2022-08-07T10:15:54.831Z,43.0
2022-08-07T10:18:16.622Z,43.0
2022-08-07T10:20:47.607Z,43.0
2022-08-07T10:23:11.116Z,43.0
2022-08-07T10:25:53.586Z,42.0
2022-08-07T10:28:14.413Z,42.0
2022-08-07T10:30:58.535Z,42.0
2022-08-07T10:34:18.343Z,41.0
2022-08-07T10:36:11.163Z,42.0
2022-08-07T10:38:48.570Z,41.0
2022-08-07T10:41:00.699Z,42.0
2022-08-07T10:43:44.385Z,41.0
2022-08-07T10:48:45.537Z,42.0
2022-08-07T10:51:39.840Z,42.0
2022-08-07T10:53:58.464Z,41.0
2022-08-07T10:56:19.692Z,41.0
2022-08-07T10:58:46.003Z,41.0
2022-08-07T11:01:35.408Z,40.0
2022-08-07T11:04:16.914Z,40.0
2022-08-07T11:06:32.250Z,39.0
2022-08-07T11:08:54.986Z,40.0
2022-08-07T11:11:35.845Z,40.0
2022-08-07T11:15:01.565Z,40.0
2022-08-07T11:16:40.993Z,40.0
2022-08-07T11:19:21.349Z,40.0
2022-08-07T11:21:50.810Z,40.0
2022-08-07T11:24:11.372Z,40.0
2022-08-07T11:29:53.957Z,41.0
2022-08-07T11:32:01.976Z,41.0
2022-08-07T11:34:26.773Z,40.0
2022-08-07T11:36:53.832Z,40.0
2022-08-07T11:39:39.919Z,40.0
2022-08-07T11:42:16.939Z,40.0
2022-08-07T11:44:52.195Z,40.0
2022-08-07T11:47:12.861Z,40.0
2022-08-07T11:50:35.345Z,40.0
2022-08-07T11:52:08.310Z,41.0
2022-08-07T11:54:40.000Z,40.0
2022-08-07T11:57:58.399Z,40.0
2022-08-07T12:00:28.984Z,41.0
2022-08-07T12:02:31.237Z,41.0
2022-08-07T12:04:55.847Z,40.0
2022-08-07T12:09:56.889Z,40.0
2022-08-07T12:12:37.998Z,40.0
2022-08-07T12:15:16.951Z,40.0
2022-08-07T12:17:36.084Z,41.0
2022-08-07T12:20:21.215Z,41.0
2022-08-07T12:22:58.722Z,40.0
2022-08-07T12:26:00.198Z,39.0
2022-08-07T12:28:24.075Z,39.0
2022-08-07T12:30:25.523Z,40.0
2022-08-07T12:32:53.919Z,39.0
2022-08-07T12:35:24.008Z,40.0
2022-08-07T12:38:29.238Z,39.0
2022-08-07T12:40:56.413Z,39.0
2022-08-07T12:43:10.647Z,38.0
2022-08-07T12:45:36.550Z,37.0
2022-08-07T12:50:50.341Z,36.0
2022-08-07T12:53:17.592Z,37.0
2022-08-07T12:56:09.078Z,36.0
2022-08-07T12:58:28.014Z,37.0
2022-08-07T13:01:00.360Z,37.0
2022-08-07T13:03:51.343Z,36.0
2022-08-07T13:06:16.910Z,35.0
2022-08-07T13:08:29.123Z,35.0
2022-08-07T13:11:02.577Z,35.0
2022-08-07T13:13:59.324Z,34.0
2022-08-07T13:16:09.946Z,35.0
2022-08-07T13:18:44.560Z,35.0
2022-08-07T13:21:10.931Z,35.0
2022-08-07T13:24:12.867Z,35.0
2022-08-07T13:26:26.539Z,35.0
2022-08-07T13:31:23.814Z,35.0
2022-08-07T13:34:48.549Z,34.0
2022-08-07T13:36:27.698Z,35.0
2022-08-07T13:38:54.299Z,35.0
2022-08-07T13:41:41.468Z,34.0
2022-08-07T13:44:10.227Z,34.0
2022-08-07T13:46:48.823Z,34.0
2022-08-07T13:49:19.796Z,33.0
2022-08-07T13:52:36.418Z,34.0
2022-08-07T13:54:16.387Z,34.0
2022-08-07T13:56:51.563Z,34.0
2022-08-07T13:59:24.227Z,34.0
2022-08-07T14:02:10.086Z,35.0
2022-08-07T14:04:22.722Z,34.0
2022-08-07T14:06:51.653Z,34.0
2022-08-07T14:12:14.848Z,34.0
2022-08-07T14:14:36.668Z,33.0
2022-08-07T14:17:13.309Z,33.0
2022-08-07T14:20:54.917Z,33.0
2022-08-07T14:22:34.296Z,33.0
2022-08-07T14:24:45.955Z,33.0
2022-08-07T14:28:32.106Z,33.0
2022-08-07T15:52:29.869Z,34.0
2022-08-07T15:53:02.607Z,33.0
2022-08-07T15:54:01.882Z,33.0
2022-08-07T15:54:39.341Z,33.0
2022-08-07T15:55:13.398Z,33.0
2022-08-07T15:56:24.060Z,33.0
2022-08-07T15:56:58.453Z,33.0
2022-08-07T15:58:00.294Z,33.0
2022-08-07T15:58:42.821Z,33.0
2022-08-07T15:59:38.001Z,34.0
2022-08-07T16:00:22.598Z,33.0
2022-08-07T16:01:04.699Z,33.0
2022-08-07T16:02:01.590Z,33.0
2022-08-07T16:02:36.218Z,33.0
2022-08-07T16:03:08.508Z,34.0
2022-08-07T16:04:14.482Z,34.0
2022-08-07T16:04:47.269Z,34.0
2022-08-07T16:05:31.058Z,34.0
2022-08-07T16:06:04.952Z,34.0
2022-08-07T16:06:38.797Z,34.0
2022-08-07T16:07:31.905Z,34.0
2022-08-07T16:09:03.065Z,34.0
2022-08-07T16:09:52.048Z,34.0
2022-08-07T16:10:25.175Z,34.0
2022-08-07T16:10:58.868Z,34.0
2022-08-07T16:11:50.325Z,34.0
2022-08-07T16:12:25.205Z,34.0
2022-08-07T16:13:17.399Z,34.0
2022-08-07T16:14:19.548Z,35.0
2022-08-07T16:14:50.980Z,35.0
2022-08-07T16:16:43.626Z,35.0
2022-08-07T16:18:01.179Z,34.0
2022-08-07T16:19:13.468Z,34.0
2022-08-07T16:20:09.739Z,34.0
2022-08-07T16:22:31.685Z,34.0
2022-08-07T16:23:25.327Z,34.0
2022-08-07T16:24:52.423Z,34.0
2022-08-07T16:25:52.907Z,34.0
2022-08-07T16:26:59.121Z,34.0
2022-08-07T16:27:57.036Z,34.0
2022-08-07T16:30:39.147Z,34.0
2022-08-07T16:31:50.552Z,34.0
2022-08-07T16:34:01.249Z,34.0
2022-08-07T16:34:48.519Z,34.0
2022-08-07T16:36:18.245Z,34.0
2022-08-07T16:38:03.227Z,34.0
2022-08-07T16:39:10.677Z,34.0
2022-08-07T16:40:12.939Z,34.0
2022-08-07T16:42:04.259Z,34.0
2022-08-07T16:45:14.584Z,34.0
2022-08-07T16:47:47.460Z,35.0
2022-08-07T16:51:13.716Z,34.0
2022-08-07T16:54:54.376Z,35.0
2022-08-07T16:57:15.596Z,35.0
2022-08-07T16:59:56.532Z,35.0
2022-08-07T17:02:50.968Z,34.0
2022-08-07T17:05:07.736Z,35.0
2022-08-07T17:07:51.778Z,35.0
2022-08-07T17:10:30.268Z,35.0
2022-08-07T17:12:45.175Z,35.0
2022-08-07T17:15:02.149Z,35.0
2022-08-07T17:17:43.966Z,35.0
2022-08-07T17:20:13.845Z,35.0
2022-08-07T17:22:48.077Z,35.0
2022-08-07T17:25:10.138Z,36.0
2022-08-07T17:27:50.669Z,36.0
2022-08-07T17:30:28.786Z,37.0
2022-08-07T17:36:05.205Z,37.0
2022-08-07T17:38:32.458Z,37.0
2022-08-07T17:40:30.354Z,37.0
2022-08-07T17:43:14.918Z,37.0
2022-08-07T17:45:34.159Z,37.0
2022-08-07T17:48:06.014Z,37.0
2022-08-07T17:50:42.456Z,37.0
2022-08-07T17:53:23.727Z,37.0
2022-08-07T17:56:15.170Z,37.0
2022-08-07T17:58:12.422Z,38.0
2022-08-07T18:00:48.619Z,38.0
2022-08-07T18:03:28.116Z,38.0
2022-08-07T18:06:37.329Z,38.0
2022-08-07T18:08:26.539Z,38.0
2022-08-07T18:12:30.756Z,38.0
2022-08-07T18:15:53.633Z,38.0
2022-08-07T18:21:02.226Z,38.0
2022-08-07T18:22:17.550Z,38.0
2022-08-07T18:23:57.603Z,38.0
2022-08-07T18:26:14.785Z,39.0
2022-08-07T18:28:57.629Z,40.0
2022-08-07T18:31:09.242Z,41.0
2022-08-07T18:34:06.003Z,41.0
2022-08-07T18:36:26.775Z,40.0
2022-08-07T18:40:05.843Z,41.0
2022-08-07T18:41:45.582Z,41.0
2022-08-07T18:43:59.498Z,42.0
2022-08-07T18:46:42.802Z,42.0
2022-08-07T18:50:49.896Z,43.0
2022-08-07T18:53:05.874Z,45.0
2022-08-07T18:56:41.906Z,45.0
2022-08-07T18:59:07.859Z,46.0
2022-08-07T19:02:42.979Z,46.0
2022-08-07T19:06:58.548Z,47.0
2022-08-07T19:10:05.496Z,47.0
2022-08-07T19:12:15.535Z,48.0
2022-08-07T19:14:30.672Z,49.0
2022-08-07T19:17:57.371Z,49.0
2022-08-07T19:19:42.085Z,50.0
2022-08-07T19:22:15.009Z,51.0
2022-08-07T19:24:43.359Z,50.0
2022-08-07T19:30:59.230Z,51.0
2022-08-07T19:32:44.679Z,52.0
2022-08-07T19:33:33.412Z,50.0
2022-08-07T19:37:55.718Z,50.0
2022-08-07T19:40:11.797Z,50.0
2022-08-07T19:42:40.319Z,50.0
2022-08-07T19:45:08.778Z,50.0
2022-08-07T19:47:37.445Z,50.0
2022-08-07T19:50:41.802Z,50.0
2022-08-07T19:52:38.176Z,51.0
2022-08-07T19:55:10.862Z,52.0
2022-08-07T19:58:16.782Z,52.0
2022-08-07T20:00:28.646Z,52.0
2022-08-07T20:02:51.722Z,52.0
2022-08-07T20:05:18.087Z,52.0
2022-08-07T20:07:56.745Z,53.0
2022-08-07T20:11:03.802Z,53.0
2022-08-07T20:12:53.342Z,53.0
2022-08-07T20:18:14.573Z,54.0
2022-08-07T20:20:36.578Z,55.0
2022-08-07T20:23:23.512Z,55.0
2022-08-07T20:25:40.055Z,56.0
2022-08-07T20:28:15.950Z,56.0
2022-08-07T20:30:56.845Z,56.0
2022-08-07T20:33:48.262Z,56.0
2022-08-07T20:36:13.213Z,57.0
2022-08-07T20:38:16.527Z,58.0
2022-08-07T20:40:52.869Z,58.0
2022-08-07T20:43:32.952Z,58.0
2022-08-07T20:46:38.795Z,58.0
2022-08-07T20:48:42.197Z,58.0
2022-08-07T20:51:01.758Z,58.0
2022-08-07T20:54:15.224Z,58.0
2022-08-07T20:58:49.609Z,57.0
2022-08-07T21:01:29.690Z,57.0
2022-08-07T21:04:13.340Z,57.0
2022-08-07T21:06:36.259Z,57.0
2022-08-07T21:08:49.180Z,57.0
2022-08-07T21:11:28.925Z,57.0
2022-08-07T21:14:40.029Z,57.0
2022-08-07T21:16:29.352Z,57.0
2022-08-07T21:19:00.689Z,56.0
2022-08-07T21:21:48.926Z,57.0
2022-08-07T21:24:09.795Z,57.0
2022-08-07T21:26:42.750Z,57.0
2022-08-07T21:29:15.646Z,57.0
2022-08-07T21:32:53.321Z,57.0
2022-08-07T21:34:18.238Z,58.0
2022-08-07T21:39:56.806Z,58.0
2022-08-07T21:42:37.361Z,58.0
2022-08-07T21:44:40.256Z,59.0
2022-08-07T21:47:03.966Z,59.0
2022-08-07T21:49:40.854Z,59.0
2022-08-07T21:52:04.905Z,59.0
2022-08-07T21:54:33.475Z,59.0
2022-08-07T21:57:31.736Z,59.0
2022-08-07T22:00:22.532Z,59.0
2022-08-07T22:02:23.098Z,60.0
2022-08-07T22:04:51.460Z,60.0
2022-08-07T22:07:14.854Z,60.0
2022-08-07T22:10:04.441Z,60.0
2022-08-07T22:12:31.598Z,60.0
2022-08-07T22:16:40.842Z,59.0
2022-08-07T22:20:00.380Z,58.0
2022-08-07T22:22:40.050Z,58.0
2022-08-07T22:25:08.437Z,58.0
2022-08-07T22:28:39.961Z,59.0
2022-08-07T22:30:13.780Z,59.0
2022-08-07T22:32:47.086Z,59.0
2022-08-07T22:35:12.268Z,59.0
2022-08-07T22:38:14.189Z,59.0
2022-08-07T22:40:26.534Z,59.0
2022-08-07T22:42:58.625Z,59.0
2022-08-07T22:47:15.003Z,59.0
2022-08-07T22:48:02.294Z,59.0
2022-08-07T22:50:33.453Z,60.0
2022-08-07T22:52:56.034Z,60.0
2022-08-07T22:55:40.557Z,60.0
2022-08-07T23:00:41.796Z,60.0
2022-08-07T23:03:19.445Z,60.0
2022-08-07T23:06:24.135Z,61.0
2022-08-07T23:08:24.591Z,61.0
2022-08-07T23:10:58.391Z,61.0
2022-08-07T23:13:29.186Z,62.0
2022-08-07T23:16:44.945Z,62.0
2022-08-07T23:18:32.186Z,62.0
2022-08-07T23:21:03.423Z,62.0
2022-08-07T23:24:19.002Z,62.0
2022-08-07T23:26:15.758Z,63.0
2022-08-07T23:28:44.214Z,63.0
2022-08-07T23:31:43.112Z,63.0
2022-08-07T23:35:01.021Z,63.0
2022-08-07T23:36:17.203Z,64.0
2022-08-07T23:41:33.192Z,64.0
2022-08-07T23:43:56.002Z,64.0
2022-08-07T23:46:23.544Z,64.0
2022-08-07T23:48:58.635Z,64.0
2022-08-07T23:53:49.422Z,65.0
2022-08-07T23:54:52.280Z,65.0
2022-08-07T23:56:53.698Z,66.0
